Big Bear Station Historical Data
Daily Summary for January 24, 2019 Units:  English    Metric   Both
Next Day »
Daily Weekly Monthly Yearly Custom
  High: Low: Average:
Temperature: 50.9 °F 22.1 °F 32.8 °F
Dew Point: 22.5 °F 15.7 °F 19.4 °F
Humidity: 85% 25% 61%
Wind Speed: 5.8mph 0.0mph 0.3mph
Wind Gust: -999.0mph - -
Wind- - WSW
Pressure: 23.65 in 23.58 in -
Precipitation: 0.00 in    
Historical Graphs
 
 
Tabular Data for January 24, 2019
Time Temperature Dew Point Pressure Wind Wind Speed Wind Gust Humidity Rainfall Rate (Hourly)
00:00 25.7 °F 19.5 °F 23.64 in Calm   -999.0 mph 77% 0.00 in
00:15 25.5 °F 19.6 °F 23.65 in Calm   -999.0 mph 78% 0.00 in
00:31 25.7 °F 20.4 °F 23.64 in Calm   -999.0 mph 80% 0.00 in
00:46 26.1 °F 20.8 °F 23.64 in SSE 2.2 mph -999.0 mph 80% 0.00 in
01:01 26.1 °F 22.2 °F 23.64 in South 1.1 mph -999.0 mph 85% 0.00 in
01:16 26.4 °F 22.5 °F 23.64 in Calm   -999.0 mph 85% 0.00 in
01:31 26.1 °F 21.9 °F 23.63 in Calm   -999.0 mph 84% 0.00 in
01:47 26.6 °F 21.6 °F 23.63 in Calm   -999.0 mph 81% 0.00 in
02:02 26.2 °F 20.9 °F 23.63 in Calm   -999.0 mph 80% 0.00 in
02:17 26.4 °F 21.4 °F 23.63 in Calm   -999.0 mph 81% 0.00 in
02:33 26.1 °F 21.6 °F 23.62 in Calm   -999.0 mph 83% 0.00 in
02:48 26.1 °F 21.1 °F 23.62 in Calm   -999.0 mph 81% 0.00 in
03:03 26.1 °F 20.5 °F 23.62 in Calm   -999.0 mph 79% 0.00 in
03:18 26.1 °F 20.2 °F 23.62 in Calm   -999.0 mph 78% 0.00 in
03:33 26.2 °F 19.7 °F 23.62 in Calm   -999.0 mph 76% 0.00 in
03:49 26.6 °F 19.4 °F 23.62 in Calm   -999.0 mph 74% 0.00 in
04:04 27.7 °F 20.2 °F 23.61 in South 2.7 mph -999.0 mph 73% 0.00 in
04:19 28.2 °F 20.7 °F 23.61 in Calm   -999.0 mph 73% 0.00 in
04:34 28.6 °F 20.7 °F 23.61 in Calm   -999.0 mph 72% 0.00 in
04:49 28.8 °F 20.2 °F 23.61 in Calm   -999.0 mph 70% 0.00 in
05:05 28.9 °F 20.3 °F 23.61 in Calm   -999.0 mph 70% 0.00 in
05:20 28.6 °F 20.1 °F 23.62 in Calm   -999.0 mph 70% 0.00 in
05:35 28.2 °F 20.3 °F 23.62 in Calm   -999.0 mph 72% 0.00 in
05:50 28.4 °F 19.5 °F 23.62 in Calm   -999.0 mph 69% 0.00 in
06:05 28.0 °F 19.5 °F 23.62 in Calm   -999.0 mph 70% 0.00 in
06:21 27.9 °F 19.7 °F 23.62 in Calm   -999.0 mph 71% 0.00 in
06:36 27.5 °F 20.0 °F 23.62 in Calm   -999.0 mph 73% 0.00 in
06:51 27.1 °F 18.9 °F 23.63 in Calm   -999.0 mph 71% 0.00 in
07:06 27.1 °F 18.9 °F 23.63 in Calm   -999.0 mph 71% 0.00 in
07:21 27.5 °F 19.3 °F 23.64 in Calm   -999.0 mph 71% 0.00 in
07:37 27.5 °F 20.3 °F 23.64 in Calm   -999.0 mph 74% 0.00 in
07:52 27.5 °F 19.7 °F 23.64 in Calm   -999.0 mph 72% 0.00 in
08:07 28.4 °F 19.9 °F 23.64 in Calm   -999.0 mph 70% 0.00 in
08:22 28.6 °F 19.7 °F 23.65 in Calm   -999.0 mph 69% 0.00 in
08:37 29.7 °F 20.8 °F 23.64 in Calm   -999.0 mph 69% 0.00 in
08:53 32.4 °F 21.2 °F 23.65 in Calm   -999.0 mph 63% 0.00 in
09:08 34.3 °F 20.6 °F 23.65 in Calm   -999.0 mph 57% 0.00 in
09:23 35.8 °F 20.3 °F 23.64 in NNW 1.7 mph -999.0 mph 53% 0.00 in
09:38 37.0 °F 20.5 °F 23.64 in Calm   -999.0 mph 51% 0.00 in
09:54 38.3 °F 20.3 °F 23.63 in Calm   -999.0 mph 48% 0.00 in
10:09 40.5 °F 19.2 °F 23.63 in Calm   -999.0 mph 42% 0.00 in
10:24 42.6 °F 19.9 °F 23.63 in North 3.7 mph -999.0 mph 40% 0.00 in
10:39 43.2 °F 19.3 °F 23.63 in Calm   -999.0 mph 38% 0.00 in
10:54 45.1 °F 19.1 °F 23.62 in Calm   -999.0 mph 35% 0.00 in
11:10 45.7 °F 18.9 °F 23.62 in Calm   -999.0 mph 34% 0.00 in
11:25 46.2 °F 18.7 °F 23.61 in Calm   -999.0 mph 33% 0.00 in
11:40 47.8 °F 19.3 °F 23.61 in NW 2.2 mph -999.0 mph 32% 0.00 in
11:55 46.6 °F 17.6 °F 23.60 in Calm   -999.0 mph 31% 0.00 in
12:11 47.5 °F 17.6 °F 23.59 in Calm   -999.0 mph 30% 0.00 in
12:26 48.0 °F 16.4 °F 23.59 in WNW 5.8 mph -999.0 mph 28% 0.00 in
12:41 47.7 °F 17.8 °F 23.59 in Calm   -999.0 mph 30% 0.00 in
12:57 48.6 °F 17.7 °F 23.59 in Calm   -999.0 mph 29% 0.00 in
13:12 50.9 °F 16.3 °F 23.59 in Calm   -999.0 mph 25% 0.00 in
13:27 48.2 °F 15.7 °F 23.59 in Calm   -999.0 mph 27% 0.00 in
13:42 46.9 °F 18.6 °F 23.58 in NW 2.2 mph -999.0 mph 32% 0.00 in
13:57 47.1 °F 19.4 °F 23.58 in Calm   -999.0 mph 33% 0.00 in
14:13 46.9 °F 17.1 °F 23.58 in Calm   -999.0 mph 30% 0.00 in
14:28 46.6 °F 16.8 °F 23.59 in South 1.1 mph -999.0 mph 30% 0.00 in
14:44 45.7 °F 18.2 °F 23.59 in Calm   -999.0 mph 33% 0.00 in
14:59 45.3 °F 17.9 °F 23.59 in Calm   -999.0 mph 33% 0.00 in
15:14 44.2 °F 17.6 °F 23.59 in Calm   -999.0 mph 34% 0.00 in
15:29 43.9 °F 18.6 °F 23.59 in NNW 2.7 mph -999.0 mph 36% 0.00 in
15:45 43.2 °F 18.0 °F 23.59 in Calm   -999.0 mph 36% 0.00 in
16:00 42.4 °F 18.6 °F 23.60 in Calm   -999.0 mph 38% 0.00 in
16:15 41.7 °F 19.7 °F 23.61 in Calm   -999.0 mph 41% 0.00 in
16:30 40.5 °F 20.8 °F 23.61 in Calm   -999.0 mph 45% 0.00 in
16:45 39.4 °F 21.3 °F 23.61 in Calm   -999.0 mph 48% 0.00 in
17:01 37.6 °F 21.6 °F 23.61 in Calm   -999.0 mph 52% 0.00 in
17:16 36.3 °F 21.7 °F 23.61 in Calm   -999.0 mph 55% 0.00 in
17:31 35.1 °F 21.0 °F 23.61 in Calm   -999.0 mph 56% 0.00 in
17:46 33.8 °F 21.8 °F 23.61 in Calm   -999.0 mph 61% 0.00 in
18:01 32.7 °F 21.1 °F 23.61 in Calm   -999.0 mph 62% 0.00 in
18:17 32.2 °F 20.3 °F 23.61 in Calm   -999.0 mph 61% 0.00 in
18:32 31.1 °F 21.4 °F 23.61 in Calm   -999.0 mph 67% 0.00 in
18:47 30.0 °F 20.0 °F 23.62 in Calm   -999.0 mph 66% 0.00 in
19:02 29.1 °F 18.1 °F 23.62 in Calm   -999.0 mph 63% 0.00 in
19:17 28.0 °F 17.8 °F 23.62 in Calm   -999.0 mph 65% 0.00 in
19:33 27.5 °F 20.0 °F 23.62 in Calm   -999.0 mph 73% 0.00 in
19:48 27.1 °F 19.3 °F 23.61 in Calm   -999.0 mph 72% 0.00 in
20:03 26.2 °F 17.4 °F 23.62 in Calm   -999.0 mph 69% 0.00 in
20:18 25.5 °F 16.4 °F 23.61 in Calm   -999.0 mph 68% 0.00 in
20:34 24.8 °F 17.1 °F 23.61 in Calm   -999.0 mph 72% 0.00 in
20:49 24.4 °F 18.5 °F 23.61 in Calm   -999.0 mph 78% 0.00 in
21:04 23.9 °F 19.2 °F 23.62 in Calm   -999.0 mph 82% 0.00 in
21:19 24.4 °F 19.7 °F 23.62 in Calm   -999.0 mph 82% 0.00 in
21:34 23.7 °F 19.0 °F 23.62 in Calm   -999.0 mph 82% 0.00 in
21:50 24.1 °F 17.6 °F 23.62 in SSE 2.2 mph -999.0 mph 76% 0.00 in
22:05 23.5 °F 17.9 °F 23.62 in Calm   -999.0 mph 79% 0.00 in
22:20 23.4 °F 18.4 °F 23.62 in Calm   -999.0 mph 81% 0.00 in
22:35 23.0 °F 17.8 °F 23.62 in Calm   -999.0 mph 80% 0.00 in
22:50 22.6 °F 17.9 °F 23.63 in Calm   -999.0 mph 82% 0.00 in
23:06 22.6 °F 18.5 °F 23.63 in Calm   -999.0 mph 84% 0.00 in
23:21 22.1 °F 17.4 °F 23.62 in Calm   -999.0 mph 82% 0.00 in
23:36 22.5 °F 16.4 °F 23.62 in Calm   -999.0 mph 77% 0.00 in
23:51 22.1 °F 16.9 °F 23.63 in Calm   -999.0 mph 80% 0.00 in
Big Bear CA Weather